sensor_id;sensor_type;location;lat;lon;timestamp;pressure;altitude;pressure_sealevel;temperature;humidity
45071;BME280;30836;48.906;9.140;2023-01-26T00:00:57;992.12;;;9.24;46.83
45071;BME280;30836;48.906;9.140;2023-01-26T00:01:58;992.10;;;9.32;46.59
45071;BME280;30836;48.906;9.140;2023-01-26T00:03:00;992.08;;;9.37;46.57
45071;BME280;30836;48.906;9.140;2023-01-26T00:04:01;992.06;;;9.39;46.63
45071;BME280;30836;48.906;9.140;2023-01-26T00:05:02;992.06;;;9.43;46.44
45071;BME280;30836;48.906;9.140;2023-01-26T00:06:04;992.08;;;9.51;46.21
45071;BME280;30836;48.906;9.140;2023-01-26T00:07:05;992.04;;;9.60;46.07
45071;BME280;30836;48.906;9.140;2023-01-26T00:08:06;992.04;;;9.70;45.88
45071;BME280;30836;48.906;9.140;2023-01-26T00:09:10;992.02;;;9.77;45.72
45071;BME280;30836;48.906;9.140;2023-01-26T00:10:12;992.04;;;9.80;45.65
45071;BME280;30836;48.906;9.140;2023-01-26T00:11:15;991.98;;;9.82;45.57
45071;BME280;30836;48.906;9.140;2023-01-26T00:12:17;991.98;;;9.85;45.58
45071;BME280;30836;48.906;9.140;2023-01-26T00:13:18;991.95;;;9.87;45.33
45071;BME280;30836;48.906;9.140;2023-01-26T00:14:18;991.95;;;9.88;45.31
45071;BME280;30836;48.906;9.140;2023-01-26T00:15:19;991.93;;;9.89;45.26
45071;BME280;30836;48.906;9.140;2023-01-26T00:16:20;991.91;;;9.93;45.26
45071;BME280;30836;48.906;9.140;2023-01-26T00:17:20;991.87;;;9.98;45.20
45071;BME280;30836;48.906;9.140;2023-01-26T00:18:21;991.85;;;10.04;45.00
45071;BME280;30836;48.906;9.140;2023-01-26T00:19:22;991.87;;;10.07;44.89
45071;BME280;30836;48.906;9.140;2023-01-26T00:20:22;991.83;;;10.08;44.85
45071;BME280;30836;48.906;9.140;2023-01-26T00:21:23;991.77;;;10.07;44.87
45071;BME280;30836;48.906;9.140;2023-01-26T00:22:25;991.75;;;10.06;44.92
45071;BME280;30836;48.906;9.140;2023-01-26T00:23:26;991.75;;;10.05;44.91
45071;BME280;30836;48.906;9.140;2023-01-26T00:24:28;991.73;;;10.01;45.04
45071;BME280;30836;48.906;9.140;2023-01-26T00:25:29;991.73;;;10.02;44.91
45071;BME280;30836;48.906;9.140;2023-01-26T00:26:30;991.71;;;10.03;44.74
45071;BME280;30836;48.906;9.140;2023-01-26T00:27:33;991.73;;;10.04;44.65
45071;BME280;30836;48.906;9.140;2023-01-26T00:28:33;991.71;;;10.05;44.75
45071;BME280;30836;48.906;9.140;2023-01-26T00:29:34;991.73;;;10.08;44.81
45071;BME280;30836;48.906;9.140;2023-01-26T00:30:35;991.71;;;10.12;44.83
45071;BME280;30836;48.906;9.140;2023-01-26T00:31:35;991.69;;;10.17;44.70
45071;BME280;30836;48.906;9.140;2023-01-26T00:32:36;991.67;;;10.19;44.87
45071;BME280;30836;48.906;9.140;2023-01-26T00:33:37;991.67;;;10.15;44.85
45071;BME280;30836;48.906;9.140;2023-01-26T00:34:38;991.67;;;10.14;44.82
45071;BME280;30836;48.906;9.140;2023-01-26T00:35:38;991.61;;;10.16;44.83
45071;BME280;30836;48.906;9.140;2023-01-26T00:36:39;991.65;;;10.20;44.78
45071;BME280;30836;48.906;9.140;2023-01-26T00:37:48;991.61;;;10.24;44.70
45071;BME280;30836;48.906;9.140;2023-01-26T00:38:45;991.59;;;10.28;44.64
45071;BME280;30836;48.906;9.140;2023-01-26T00:39:46;991.59;;;10.31;44.61
45071;BME280;30836;48.906;9.140;2023-01-26T00:40:47;991.59;;;10.32;44.46
45071;BME280;30836;48.906;9.140;2023-01-26T00:41:47;991.57;;;10.30;44.58
45071;BME280;30836;48.906;9.140;2023-01-26T00:42:48;991.55;;;10.32;44.53
45071;BME280;30836;48.906;9.140;2023-01-26T00:43:48;991.57;;;10.33;44.42
45071;BME280;30836;48.906;9.140;2023-01-26T00:44:49;991.55;;;10.35;44.36
45071;BME280;30836;48.906;9.140;2023-01-26T00:45:50;991.51;;;10.38;44.37
45071;BME280;30836;48.906;9.140;2023-01-26T00:46:51;991.49;;;10.43;44.34
45071;BME280;30836;48.906;9.140;2023-01-26T00:47:51;991.51;;;10.47;44.31
45071;BME280;30836;48.906;9.140;2023-01-26T00:48:52;991.49;;;10.50;44.28
45071;BME280;30836;48.906;9.140;2023-01-26T00:49:52;991.46;;;10.51;44.19
45071;BME280;30836;48.906;9.140;2023-01-26T00:50:53;991.49;;;10.49;44.14
45071;BME280;30836;48.906;9.140;2023-01-26T00:51:53;991.46;;;10.44;44.29
45071;BME280;30836;48.906;9.140;2023-01-26T00:52:54;991.46;;;10.37;44.52
45071;BME280;30836;48.906;9.140;2023-01-26T00:53:54;991.48;;;10.28;44.73
45071;BME280;30836;48.906;9.140;2023-01-26T00:54:55;991.48;;;10.18;44.91
45071;BME280;30836;48.906;9.140;2023-01-26T00:55:55;991.46;;;10.07;45.08
45071;BME280;30836;48.906;9.140;2023-01-26T00:56:56;991.42;;;9.97;45.30
45071;BME280;30836;48.906;9.140;2023-01-26T00:57:57;991.42;;;9.85;45.48
45071;BME280;30836;48.906;9.140;2023-01-26T00:58:59;991.38;;;9.75;45.59
45071;BME280;30836;48.906;9.140;2023-01-26T00:59:59;991.38;;;9.67;45.83
45071;BME280;30836;48.906;9.140;2023-01-26T01:01:00;991.36;;;9.60;45.96
45071;BME280;30836;48.906;9.140;2023-01-26T01:02:00;991.36;;;9.52;46.11
45071;BME280;30836;48.906;9.140;2023-01-26T01:03:01;991.36;;;9.46;46.04
45071;BME280;30836;48.906;9.140;2023-01-26T01:04:02;991.34;;;9.42;46.18
45071;BME280;30836;48.906;9.140;2023-01-26T01:05:03;991.38;;;9.35;46.34
45071;BME280;30836;48.906;9.140;2023-01-26T01:06:04;991.40;;;9.30;46.52
45071;BME280;30836;48.906;9.140;2023-01-26T01:07:05;991.40;;;9.27;46.69
45071;BME280;30836;48.906;9.140;2023-01-26T01:08:08;991.42;;;9.24;46.74
45071;BME280;30836;48.906;9.140;2023-01-26T01:09:09;991.44;;;9.21;46.87
45071;BME280;30836;48.906;9.140;2023-01-26T01:10:09;991.46;;;9.22;46.88
45071;BME280;30836;48.906;9.140;2023-01-26T01:11:10;991.48;;;9.20;47.12
45071;BME280;30836;48.906;9.140;2023-01-26T01:12:11;991.46;;;9.10;47.39
45071;BME280;30836;48.906;9.140;2023-01-26T01:13:12;991.44;;;9.00;47.30
45071;BME280;30836;48.906;9.140;2023-01-26T01:14:13;991.42;;;8.93;47.32
45071;BME280;30836;48.906;9.140;2023-01-26T01:15:14;991.42;;;8.88;47.50
45071;BME280;30836;48.906;9.140;2023-01-26T01:16:15;991.42;;;8.89;47.51
45071;BME280;30836;48.906;9.140;2023-01-26T01:17:16;991.38;;;8.94;47.39
45071;BME280;30836;48.906;9.140;2023-01-26T01:18:17;991.44;;;9.06;46.99
45071;BME280;30836;48.906;9.140;2023-01-26T01:19:17;991.44;;;9.23;46.63
45071;BME280;30836;48.906;9.140;2023-01-26T01:20:18;991.46;;;9.38;46.41
45071;BME280;30836;48.906;9.140;2023-01-26T01:21:19;991.44;;;9.48;46.10
45071;BME280;30836;48.906;9.140;2023-01-26T01:22:20;991.42;;;9.53;45.97
45071;BME280;30836;48.906;9.140;2023-01-26T01:23:21;991.42;;;9.53;46.14
45071;BME280;30836;48.906;9.140;2023-01-26T01:24:26;991.40;;;9.52;45.99
45071;BME280;30836;48.906;9.140;2023-01-26T01:25:26;991.42;;;9.55;45.92
45071;BME280;30836;48.906;9.140;2023-01-26T01:26:27;991.40;;;9.61;45.73
45071;BME280;30836;48.906;9.140;2023-01-26T01:27:28;991.40;;;9.67;45.63
45071;BME280;30836;48.906;9.140;2023-01-26T01:28:28;991.36;;;9.74;45.47
45071;BME280;30836;48.906;9.140;2023-01-26T01:29:29;991.36;;;9.80;45.28
45071;BME280;30836;48.906;9.140;2023-01-26T01:30:30;991.38;;;9.84;45.08
45071;BME280;30836;48.906;9.140;2023-01-26T01:31:30;991.34;;;9.89;45.02
45071;BME280;30836;48.906;9.140;2023-01-26T01:32:31;991.34;;;9.92;44.69
45071;BME280;30836;48.906;9.140;2023-01-26T01:33:33;991.30;;;9.92;44.77
45071;BME280;30836;48.906;9.140;2023-01-26T01:34:34;991.30;;;9.93;44.65
45071;BME280;30836;48.906;9.140;2023-01-26T01:35:34;991.34;;;9.96;44.63
45071;BME280;30836;48.906;9.140;2023-01-26T01:36:35;991.34;;;10.00;44.53
45071;BME280;30836;48.906;9.140;2023-01-26T01:37:35;991.34;;;10.03;44.47
45071;BME280;30836;48.906;9.140;2023-01-26T01:38:38;991.34;;;10.04;44.40
45071;BME280;30836;48.906;9.140;2023-01-26T01:39:39;991.32;;;10.05;44.46
45071;BME280;30836;48.906;9.140;2023-01-26T01:40:41;991.34;;;10.04;44.57
45071;BME280;30836;48.906;9.140;2023-01-26T01:41:42;991.30;;;10.00;44.82
45071;BME280;30836;48.906;9.140;2023-01-26T01:42:46;991.28;;;9.96;44.88
45071;BME280;30836;48.906;9.140;2023-01-26T01:43:50;991.28;;;9.90;45.04
45071;BME280;30836;48.906;9.140;2023-01-26T01:46:21;991.24;;;9.74;45.53
45071;BME280;30836;48.906;9.140;2023-01-26T01:47:16;991.22;;;9.64;45.81
45071;BME280;30836;48.906;9.140;2023-01-26T01:50:34;991.20;;;9.47;46.22
45071;BME280;30836;48.906;9.140;2023-01-26T01:52:46;991.20;;;9.47;46.17
45071;BME280;30836;48.906;9.140;2023-01-26T01:53:48;991.18;;;9.46;46.27
45071;BME280;30836;48.906;9.140;2023-01-26T01:55:09;991.16;;;9.46;46.35
45071;BME280;30836;48.906;9.140;2023-01-26T01:56:05;991.16;;;9.47;46.36
45071;BME280;30836;48.906;9.140;2023-01-26T01:57:13;991.16;;;9.50;46.34
45071;BME280;30836;48.906;9.140;2023-01-26T01:58:17;991.14;;;9.51;46.29
45071;BME280;30836;48.906;9.140;2023-01-26T01:59:19;991.14;;;9.52;46.24
45071;BME280;30836;48.906;9.140;2023-01-26T02:00:21;991.14;;;9.51;46.21
45071;BME280;30836;48.906;9.140;2023-01-26T02:01:23;991.12;;;9.51;46.20
45071;BME280;30836;48.906;9.140;2023-01-26T02:02:24;991.14;;;9.54;46.04
45071;BME280;30836;48.906;9.140;2023-01-26T02:03:25;991.16;;;9.55;46.13
45071;BME280;30836;48.906;9.140;2023-01-26T02:04:28;991.14;;;9.55;46.13
45071;BME280;30836;48.906;9.140;2023-01-26T02:05:30;991.14;;;9.55;46.08
45071;BME280;30836;48.906;9.140;2023-01-26T02:06:35;991.12;;;9.57;45.97
45071;BME280;30836;48.906;9.140;2023-01-26T02:07:42;991.12;;;9.60;45.85
45071;BME280;30836;48.906;9.140;2023-01-26T02:08:47;991.14;;;9.61;45.91
45071;BME280;30836;48.906;9.140;2023-01-26T02:09:50;991.14;;;9.61;45.84
45071;BME280;30836;48.906;9.140;2023-01-26T02:10:52;991.12;;;9.59;45.80
45071;BME280;30836;48.906;9.140;2023-01-26T02:11:55;991.12;;;9.59;45.79
45071;BME280;30836;48.906;9.140;2023-01-26T02:12:56;991.12;;;9.60;45.63
45071;BME280;30836;48.906;9.140;2023-01-26T02:14:04;991.10;;;9.61;45.69
45071;BME280;30836;48.906;9.140;2023-01-26T02:15:08;991.10;;;9.62;45.76
45071;BME280;30836;48.906;9.140;2023-01-26T02:16:11;991.12;;;9.64;45.77
45071;BME280;30836;48.906;9.140;2023-01-26T02:17:12;991.10;;;9.68;45.60
45071;BME280;30836;48.906;9.140;2023-01-26T02:18:12;991.06;;;9.68;45.56
45071;BME280;30836;48.906;9.140;2023-01-26T02:19:34;991.06;;;9.65;45.61
45071;BME280;30836;48.906;9.140;2023-01-26T02:21:35;991.02;;;9.63;45.69
45071;BME280;30836;48.906;9.140;2023-01-26T02:23:45;990.98;;;9.61;45.80
45071;BME280;30836;48.906;9.140;2023-01-26T02:24:54;990.96;;;9.67;45.58
45071;BME280;30836;48.906;9.140;2023-01-26T02:26:07;990.96;;;9.80;45.28
45071;BME280;30836;48.906;9.140;2023-01-26T02:27:14;990.96;;;9.93;45.00
45071;BME280;30836;48.906;9.140;2023-01-26T02:28:15;990.98;;;10.04;44.80
45071;BME280;30836;48.906;9.140;2023-01-26T02:29:17;990.96;;;10.10;44.57
45071;BME280;30836;48.906;9.140;2023-01-26T02:30:18;990.96;;;10.13;44.60
45071;BME280;30836;48.906;9.140;2023-01-26T02:31:21;990.96;;;10.16;44.48
45071;BME280;30836;48.906;9.140;2023-01-26T02:32:22;990.94;;;10.15;44.40
45071;BME280;30836;48.906;9.140;2023-01-26T02:33:25;990.96;;;10.12;44.39
45071;BME280;30836;48.906;9.140;2023-01-26T02:34:28;990.96;;;10.11;44.44
45071;BME280;30836;48.906;9.140;2023-01-26T02:35:30;990.94;;;10.13;44.41
45071;BME280;30836;48.906;9.140;2023-01-26T02:36:31;990.93;;;10.14;44.30
45071;BME280;30836;48.906;9.140;2023-01-26T02:37:33;990.93;;;10.10;44.39
45071;BME280;30836;48.906;9.140;2023-01-26T02:38:36;990.93;;;10.08;44.45
45071;BME280;30836;48.906;9.140;2023-01-26T02:41:55;990.93;;;9.98;44.59
45071;BME280;30836;48.906;9.140;2023-01-26T02:42:55;990.93;;;9.95;44.60
45071;BME280;30836;48.906;9.140;2023-01-26T02:43:56;990.91;;;9.99;44.54
45071;BME280;30836;48.906;9.140;2023-01-26T02:44:56;990.91;;;10.05;44.45
45071;BME280;30836;48.906;9.140;2023-01-26T02:45:57;990.91;;;10.12;44.32
45071;BME280;30836;48.906;9.140;2023-01-26T02:46:58;990.93;;;10.18;44.26
45071;BME280;30836;48.906;9.140;2023-01-26T02:47:58;990.89;;;10.20;44.10
45071;BME280;30836;48.906;9.140;2023-01-26T02:48:59;990.89;;;10.18;44.14
45071;BME280;30836;48.906;9.140;2023-01-26T02:50:00;990.87;;;10.17;44.22
45071;BME280;30836;48.906;9.140;2023-01-26T02:51:00;990.87;;;10.16;44.18
45071;BME280;30836;48.906;9.140;2023-01-26T02:52:03;990.85;;;10.17;44.27
45071;BME280;30836;48.906;9.140;2023-01-26T02:53:05;990.85;;;10.17;44.15
45071;BME280;30836;48.906;9.140;2023-01-26T02:54:05;990.85;;;10.16;44.24
45071;BME280;30836;48.906;9.140;2023-01-26T02:55:06;990.87;;;10.19;44.22
45071;BME280;30836;48.906;9.140;2023-01-26T02:56:07;990.83;;;10.23;44.26
45071;BME280;30836;48.906;9.140;2023-01-26T02:57:07;990.81;;;10.27;44.22
45071;BME280;30836;48.906;9.140;2023-01-26T02:58:08;990.85;;;10.32;44.13
45071;BME280;30836;48.906;9.140;2023-01-26T02:59:09;990.81;;;10.35;44.15
45071;BME280;30836;48.906;9.140;2023-01-26T03:00:10;990.81;;;10.36;44.21
45071;BME280;30836;48.906;9.140;2023-01-26T03:01:14;990.79;;;10.38;44.23
45071;BME280;30836;48.906;9.140;2023-01-26T03:02:15;990.75;;;10.39;44.19
45071;BME280;30836;48.906;9.140;2023-01-26T03:03:17;990.73;;;10.40;44.17
45071;BME280;30836;48.906;9.140;2023-01-26T03:04:21;990.73;;;10.42;44.14
45071;BME280;30836;48.906;9.140;2023-01-26T03:05:21;990.73;;;10.44;44.12
45071;BME280;30836;48.906;9.140;2023-01-26T03:06:22;990.73;;;10.46;44.05
45071;BME280;30836;48.906;9.140;2023-01-26T03:07:23;990.73;;;10.46;44.11
45071;BME280;30836;48.906;9.140;2023-01-26T03:08:23;990.75;;;10.47;44.14
45071;BME280;30836;48.906;9.140;2023-01-26T03:09:24;990.71;;;10.49;44.10
45071;BME280;30836;48.906;9.140;2023-01-26T03:10:24;990.69;;;10.52;43.97
45071;BME280;30836;48.906;9.140;2023-01-26T03:11:25;990.67;;;10.54;43.97
45071;BME280;30836;48.906;9.140;2023-01-26T03:12:25;990.65;;;10.55;43.84
45071;BME280;30836;48.906;9.140;2023-01-26T03:13:26;990.63;;;10.54;43.92
45071;BME280;30836;48.906;9.140;2023-01-26T03:14:28;990.63;;;10.54;43.97
45071;BME280;30836;48.906;9.140;2023-01-26T03:15:29;990.63;;;10.54;43.91
45071;BME280;30836;48.906;9.140;2023-01-26T03:16:29;990.61;;;10.55;43.92
45071;BME280;30836;48.906;9.140;2023-01-26T03:17:30;990.59;;;10.53;43.89
45071;BME280;30836;48.906;9.140;2023-01-26T03:18:31;990.59;;;10.52;43.91
45071;BME280;30836;48.906;9.140;2023-01-26T03:19:33;990.59;;;10.51;43.95
45071;BME280;30836;48.906;9.140;2023-01-26T03:20:33;990.55;;;10.52;43.96
45071;BME280;30836;48.906;9.140;2023-01-26T03:21:34;990.55;;;10.53;43.92
45071;BME280;30836;48.906;9.140;2023-01-26T03:22:35;990.55;;;10.55;43.86
45071;BME280;30836;48.906;9.140;2023-01-26T03:23:36;990.55;;;10.56;43.78
45071;BME280;30836;48.906;9.140;2023-01-26T03:24:36;990.55;;;10.54;43.74
45071;BME280;30836;48.906;9.140;2023-01-26T03:25:37;990.51;;;10.48;43.78
45071;BME280;30836;48.906;9.140;2023-01-26T03:26:37;990.53;;;10.34;43.97
45071;BME280;30836;48.906;9.140;2023-01-26T03:27:42;990.49;;;10.22;44.05
45071;BME280;30836;48.906;9.140;2023-01-26T03:28:47;990.51;;;10.15;44.08
45071;BME280;30836;48.906;9.140;2023-01-26T03:29:50;990.49;;;10.09;44.15
45071;BME280;30836;48.906;9.140;2023-01-26T03:29:56;990.53;;;10.01;44.17
45071;BME280;30836;48.906;9.140;2023-01-26T03:30:57;990.51;;;9.97;44.40
45071;BME280;30836;48.906;9.140;2023-01-26T03:31:58;990.47;;;9.85;44.82
45071;BME280;30836;48.906;9.140;2023-01-26T03:33:00;990.49;;;9.72;45.07
45071;BME280;30836;48.906;9.140;2023-01-26T03:34:00;990.49;;;9.60;45.26
45071;BME280;30836;48.906;9.140;2023-01-26T03:35:01;990.51;;;9.49;45.58
45071;BME280;30836;48.906;9.140;2023-01-26T03:36:01;990.47;;;9.36;45.91
45071;BME280;30836;48.906;9.140;2023-01-26T03:37:02;990.49;;;9.23;46.08
45071;BME280;30836;48.906;9.140;2023-01-26T03:38:04;990.47;;;9.14;46.27
45071;BME280;30836;48.906;9.140;2023-01-26T03:39:04;990.47;;;9.08;46.33
45071;BME280;30836;48.906;9.140;2023-01-26T03:40:05;990.46;;;9.06;46.39
45071;BME280;30836;48.906;9.140;2023-01-26T03:41:06;990.47;;;9.03;46.53
45071;BME280;30836;48.906;9.140;2023-01-26T03:42:07;990.42;;;9.00;46.58
45071;BME280;30836;48.906;9.140;2023-01-26T03:43:07;990.38;;;8.99;46.58
45071;BME280;30836;48.906;9.140;2023-01-26T03:44:08;990.38;;;8.99;46.61
45071;BME280;30836;48.906;9.140;2023-01-26T03:45:09;990.34;;;8.99;46.65
45071;BME280;30836;48.906;9.140;2023-01-26T03:46:10;990.34;;;9.00;46.73
45071;BME280;30836;48.906;9.140;2023-01-26T03:47:10;990.34;;;8.99;46.80
45071;BME280;30836;48.906;9.140;2023-01-26T03:48:11;990.32;;;8.98;46.86
45071;BME280;30836;48.906;9.140;2023-01-26T03:49:12;990.34;;;8.98;46.88
45071;BME280;30836;48.906;9.140;2023-01-26T03:50:12;990.34;;;8.97;47.05
45071;BME280;30836;48.906;9.140;2023-01-26T03:51:13;990.34;;;8.97;47.08
45071;BME280;30836;48.906;9.140;2023-01-26T03:52:13;990.34;;;8.98;47.14
45071;BME280;30836;48.906;9.140;2023-01-26T03:53:15;990.34;;;9.00;47.16
45071;BME280;30836;48.906;9.140;2023-01-26T03:54:17;990.34;;;9.05;47.01
45071;BME280;30836;48.906;9.140;2023-01-26T03:55:18;990.34;;;9.16;46.75
45071;BME280;30836;48.906;9.140;2023-01-26T03:56:18;990.34;;;9.28;46.49
45071;BME280;30836;48.906;9.140;2023-01-26T03:57:19;990.36;;;9.40;46.02
45071;BME280;30836;48.906;9.140;2023-01-26T03:58:20;990.36;;;9.49;45.76
45071;BME280;30836;48.906;9.140;2023-01-26T03:59:21;990.36;;;9.54;45.69
45071;BME280;30836;48.906;9.140;2023-01-26T04:00:21;990.32;;;9.58;45.64
45071;BME280;30836;48.906;9.140;2023-01-26T04:01:23;990.34;;;9.64;45.48
45071;BME280;30836;48.906;9.140;2023-01-26T04:02:25;990.32;;;9.66;45.46
45071;BME280;30836;48.906;9.140;2023-01-26T04:03:25;990.38;;;9.59;45.80
45071;BME280;30836;48.906;9.140;2023-01-26T04:04:26;990.40;;;9.55;45.81
45071;BME280;30836;48.906;9.140;2023-01-26T04:05:26;990.40;;;9.59;45.70
45071;BME280;30836;48.906;9.140;2023-01-26T04:06:27;990.40;;;9.64;45.57
45071;BME280;30836;48.906;9.140;2023-01-26T04:07:27;990.42;;;9.69;45.59
45071;BME280;30836;48.906;9.140;2023-01-26T04:08:28;990.40;;;9.76;45.42
45071;BME280;30836;48.906;9.140;2023-01-26T04:09:29;990.44;;;9.82;45.41
45071;BME280;30836;48.906;9.140;2023-01-26T04:10:30;990.44;;;9.86;45.31
45071;BME280;30836;48.906;9.140;2023-01-26T04:11:30;990.42;;;9.88;45.29
45071;BME280;30836;48.906;9.140;2023-01-26T04:12:31;990.38;;;9.90;45.22
45071;BME280;30836;48.906;9.140;2023-01-26T04:13:31;990.40;;;9.93;45.01
45071;BME280;30836;48.906;9.140;2023-01-26T04:14:32;990.38;;;9.93;44.77
45071;BME280;30836;48.906;9.140;2023-01-26T04:15:32;990.38;;;9.90;44.85
45071;BME280;30836;48.906;9.140;2023-01-26T04:16:35;990.38;;;9.87;44.80
45071;BME280;30836;48.906;9.140;2023-01-26T04:17:35;990.38;;;9.82;44.91
45071;BME280;30836;48.906;9.140;2023-01-26T04:18:36;990.38;;;9.78;45.07
45071;BME280;30836;48.906;9.140;2023-01-26T04:19:36;990.40;;;9.77;45.03
45071;BME280;30836;48.906;9.140;2023-01-26T04:20:37;990.38;;;9.78;45.01
45071;BME280;30836;48.906;9.140;2023-01-26T04:21:39;990.42;;;9.82;44.87
45071;BME280;30836;48.906;9.140;2023-01-26T04:22:40;990.44;;;9.87;44.84
45071;BME280;30836;48.906;9.140;2023-01-26T04:23:42;990.44;;;9.93;44.76
45071;BME280;30836;48.906;9.140;2023-01-26T04:24:42;990.46;;;9.97;44.63
45071;BME280;30836;48.906;9.140;2023-01-26T04:25:43;990.46;;;9.99;44.60
45071;BME280;30836;48.906;9.140;2023-01-26T04:26:43;990.44;;;10.01;44.65
45071;BME280;30836;48.906;9.140;2023-01-26T04:27:44;990.46;;;10.04;44.66
45071;BME280;30836;48.906;9.140;2023-01-26T04:28:45;990.49;;;10.07;44.68
45071;BME280;30836;48.906;9.140;2023-01-26T04:29:46;990.44;;;10.11;44.64
45071;BME280;30836;48.906;9.140;2023-01-26T04:30:46;990.44;;;10.12;44.58
45071;BME280;30836;48.906;9.140;2023-01-26T04:31:47;990.40;;;10.10;44.52
45071;BME280;30836;48.906;9.140;2023-01-26T04:32:47;990.40;;;10.05;44.63
45071;BME280;30836;48.906;9.140;2023-01-26T04:33:50;990.40;;;10.03;44.70
45071;BME280;30836;48.906;9.140;2023-01-26T04:34:50;990.38;;;10.02;44.74
45071;BME280;30836;48.906;9.140;2023-01-26T04:35:51;990.38;;;10.00;44.69
45071;BME280;30836;48.906;9.140;2023-01-26T04:36:52;990.36;;;10.00;44.70
45071;BME280;30836;48.906;9.140;2023-01-26T04:37:52;990.36;;;9.99;44.73
45071;BME280;30836;48.906;9.140;2023-01-26T04:38:53;990.36;;;9.98;44.67
45071;BME280;30836;48.906;9.140;2023-01-26T04:39:54;990.38;;;9.97;44.74
45071;BME280;30836;48.906;9.140;2023-01-26T04:40:54;990.34;;;9.95;44.69
45071;BME280;30836;48.906;9.140;2023-01-26T04:41:55;990.34;;;9.93;44.72
45071;BME280;30836;48.906;9.140;2023-01-26T04:42:56;990.34;;;9.94;44.73
45071;BME280;30836;48.906;9.140;2023-01-26T04:43:56;990.34;;;9.94;44.76
45071;BME280;30836;48.906;9.140;2023-01-26T04:44:58;990.34;;;9.91;44.89
45071;BME280;30836;48.906;9.140;2023-01-26T04:45:59;990.30;;;9.91;44.86
45071;BME280;30836;48.906;9.140;2023-01-26T04:47:01;990.34;;;9.93;44.85
45071;BME280;30836;48.906;9.140;2023-01-26T04:48:01;990.32;;;9.97;44.83
45071;BME280;30836;48.906;9.140;2023-01-26T04:49:02;990.34;;;10.00;44.76
45071;BME280;30836;48.906;9.140;2023-01-26T04:50:03;990.30;;;10.03;44.65
45071;BME280;30836;48.906;9.140;2023-01-26T04:51:05;990.30;;;10.04;44.63
45071;BME280;30836;48.906;9.140;2023-01-26T04:52:08;990.28;;;10.05;44.63
45071;BME280;30836;48.906;9.140;2023-01-26T04:53:09;990.30;;;10.05;44.56
45071;BME280;30836;48.906;9.140;2023-01-26T04:54:09;990.28;;;10.06;44.60
45071;BME280;30836;48.906;9.140;2023-01-26T04:55:10;990.26;;;10.06;44.60
45071;BME280;30836;48.906;9.140;2023-01-26T04:57:21;990.24;;;10.10;44.47
45071;BME280;30836;48.906;9.140;2023-01-26T04:58:22;990.22;;;10.14;44.47
45071;BME280;30836;48.906;9.140;2023-01-26T04:59:22;990.20;;;10.18;44.42
45071;BME280;30836;48.906;9.140;2023-01-26T05:00:23;990.22;;;10.21;44.38
45071;BME280;30836;48.906;9.140;2023-01-26T05:01:23;990.20;;;10.23;44.37
45071;BME280;30836;48.906;9.140;2023-01-26T05:02:24;990.20;;;10.25;44.29
45071;BME280;30836;48.906;9.140;2023-01-26T05:03:27;990.22;;;10.26;44.24
45071;BME280;30836;48.906;9.140;2023-01-26T05:04:27;990.20;;;10.27;44.27
45071;BME280;30836;48.906;9.140;2023-01-26T05:05:28;990.22;;;10.28;44.26
45071;BME280;30836;48.906;9.140;2023-01-26T05:06:29;990.20;;;10.29;44.19
45071;BME280;30836;48.906;9.140;2023-01-26T05:07:30;990.20;;;10.30;44.14
45071;BME280;30836;48.906;9.140;2023-01-26T05:08:30;990.20;;;10.31;44.10
45071;BME280;30836;48.906;9.140;2023-01-26T05:09:31;990.22;;;10.32;44.05
45071;BME280;30836;48.906;9.140;2023-01-26T05:10:32;990.24;;;10.31;44.09
45071;BME280;30836;48.906;9.140;2023-01-26T05:11:32;990.22;;;10.26;43.97
45071;BME280;30836;48.906;9.140;2023-01-26T05:12:33;990.20;;;10.21;43.97
45071;BME280;30836;48.906;9.140;2023-01-26T05:13:34;990.24;;;10.18;43.98
45071;BME280;30836;48.906;9.140;2023-01-26T05:14:34;990.22;;;10.17;43.99
45071;BME280;30836;48.906;9.140;2023-01-26T05:15:35;990.22;;;10.16;43.96
45071;BME280;30836;48.906;9.140;2023-01-26T05:16:36;990.24;;;10.16;43.88
45071;BME280;30836;48.906;9.140;2023-01-26T05:17:36;990.22;;;10.14;43.92
45071;BME280;30836;48.906;9.140;2023-01-26T05:18:37;990.24;;;10.11;44.05
45071;BME280;30836;48.906;9.140;2023-01-26T05:19:38;990.24;;;10.09;44.20
45071;BME280;30836;48.906;9.140;2023-01-26T05:20:38;990.24;;;10.08;44.23
45071;BME280;30836;48.906;9.140;2023-01-26T05:21:39;990.26;;;10.10;44.21
45071;BME280;30836;48.906;9.140;2023-01-26T05:22:39;990.24;;;10.12;44.21
45071;BME280;30836;48.906;9.140;2023-01-26T05:23:40;990.24;;;10.13;44.16
45071;BME280;30836;48.906;9.140;2023-01-26T05:24:40;990.26;;;10.14;44.16
45071;BME280;30836;48.906;9.140;2023-01-26T05:25:41;990.26;;;10.12;44.20
45071;BME280;30836;48.906;9.140;2023-01-26T05:26:43;990.24;;;10.12;44.09
45071;BME280;30836;48.906;9.140;2023-01-26T05:27:43;990.24;;;10.14;43.72
45071;BME280;30836;48.906;9.140;2023-01-26T05:28:44;990.26;;;10.14;43.77
45071;BME280;30836;48.906;9.140;2023-01-26T05:29:45;990.24;;;10.14;43.75
45071;BME280;30836;48.906;9.140;2023-01-26T05:30:46;990.26;;;10.11;43.78
45071;BME280;30836;48.906;9.140;2023-01-26T05:31:47;990.26;;;10.03;43.92
45071;BME280;30836;48.906;9.140;2023-01-26T05:32:48;990.26;;;9.91;44.18
45071;BME280;30836;48.906;9.140;2023-01-26T05:33:48;990.24;;;9.74;44.51
45071;BME280;30836;48.906;9.140;2023-01-26T05:34:49;990.26;;;9.55;44.75
45071;BME280;30836;48.906;9.140;2023-01-26T05:35:50;990.24;;;9.37;44.99
45071;BME280;30836;48.906;9.140;2023-01-26T05:36:52;990.24;;;9.21;45.40
45071;BME280;30836;48.906;9.140;2023-01-26T05:37:52;990.24;;;9.09;45.51
45071;BME280;30836;48.906;9.140;2023-01-26T05:38:54;990.28;;;9.03;45.67
45071;BME280;30836;48.906;9.140;2023-01-26T05:39:54;990.24;;;9.01;45.67
45071;BME280;30836;48.906;9.140;2023-01-26T05:40:55;990.28;;;9.01;45.70
45071;BME280;30836;48.906;9.140;2023-01-26T05:41:56;990.26;;;9.02;45.77
45071;BME280;30836;48.906;9.140;2023-01-26T05:42:57;990.26;;;9.02;45.91
45071;BME280;30836;48.906;9.140;2023-01-26T05:43:57;990.26;;;9.03;45.94
45071;BME280;30836;48.906;9.140;2023-01-26T05:44:58;990.26;;;9.02;45.88
45071;BME280;30836;48.906;9.140;2023-01-26T05:45:59;990.26;;;9.02;45.91